sensor_id;sensor_type;location;lat;lon;timestamp;pressure;altitude;pressure_sealevel;temperature;humidity
50093;BME280;35974;47.752;10.290;2022-08-01T00:01:57;94015.50;;;21.16;52.53
50093;BME280;35974;47.752;10.290;2022-08-01T00:04:24;94037.06;;;21.19;52.93
50093;BME280;35974;47.752;10.290;2022-08-01T00:06:50;94018.94;;;20.96;53.33
50093;BME280;35974;47.752;10.290;2022-08-01T00:09:17;94042.34;;;20.78;53.80
50093;BME280;35974;47.752;10.290;2022-08-01T00:11:50;94028.44;;;20.51;54.57
50093;BME280;35974;47.752;10.290;2022-08-01T00:14:26;94027.25;;;20.26;55.35
50093;BME280;35974;47.752;10.290;2022-08-01T00:16:58;94047.47;;;20.27;55.51
50093;BME280;35974;47.752;10.290;2022-08-01T00:19:32;94030.91;;;20.04;56.17
50093;BME280;35974;47.752;10.290;2022-08-01T00:21:59;94060.66;;;20.06;57.40
50093;BME280;35974;47.752;10.290;2022-08-01T00:24:26;94064.25;;;19.85;58.26
50093;BME280;35974;47.752;10.290;2022-08-01T00:26:52;94027.47;;;19.61;58.57
50093;BME280;35974;47.752;10.290;2022-08-01T00:29:18;94051.66;;;19.70;58.75
50093;BME280;35974;47.752;10.290;2022-08-01T00:32:05;94052.94;;;19.62;58.88
50093;BME280;35974;47.752;10.290;2022-08-01T00:34:33;94062.94;;;19.50;60.09
50093;BME280;35974;47.752;10.290;2022-08-01T00:36:59;94028.63;;;19.38;59.75
50093;BME280;35974;47.752;10.290;2022-08-01T00:39:26;94054.78;;;19.24;60.66
50093;BME280;35974;47.752;10.290;2022-08-01T00:41:52;94038.28;;;19.17;60.02
50093;BME280;35974;47.752;10.290;2022-08-01T00:44:27;94049.50;;;18.97;61.01
50093;BME280;35974;47.752;10.290;2022-08-01T00:46:53;94036.28;;;18.75;61.23
50093;BME280;35974;47.752;10.290;2022-08-01T00:49:24;94046.59;;;18.71;62.64
50093;BME280;35974;47.752;10.290;2022-08-01T00:51:51;94043.78;;;18.56;62.64
50093;BME280;35974;47.752;10.290;2022-08-01T00:54:17;94064.28;;;18.65;63.00
50093;BME280;35974;47.752;10.290;2022-08-01T00:56:44;94037.28;;;18.41;63.06
50093;BME280;35974;47.752;10.290;2022-08-01T00:59:11;94052.38;;;18.41;63.39
50093;BME280;35974;47.752;10.290;2022-08-01T01:01:41;94027.84;;;18.28;63.35
50093;BME280;35974;47.752;10.290;2022-08-01T01:04:12;94047.06;;;18.41;63.63
50093;BME280;35974;47.752;10.290;2022-08-01T01:06:43;94059.31;;;18.47;63.35
50093;BME280;35974;47.752;10.290;2022-08-01T01:09:17;94051.75;;;18.34;63.87
50093;BME280;35974;47.752;10.290;2022-08-01T01:17:23;94050.41;;;18.09;64.97
50093;BME280;35974;47.752;10.290;2022-08-01T01:20:13;94064.81;;;18.18;65.00
50093;BME280;35974;47.752;10.290;2022-08-01T01:28:04;94041.47;;;17.76;66.47
50093;BME280;35974;47.752;10.290;2022-08-01T01:30:35;94031.72;;;17.60;67.17
50093;BME280;35974;47.752;10.290;2022-08-01T01:33:05;94066.66;;;17.96;66.47
50093;BME280;35974;47.752;10.290;2022-08-01T01:35:35;94043.91;;;17.61;66.67
50093;BME280;35974;47.752;10.290;2022-08-01T01:38:32;94051.03;;;17.43;67.18
50093;BME280;35974;47.752;10.290;2022-08-01T01:41:00;94047.91;;;17.46;67.02
50093;BME280;35974;47.752;10.290;2022-08-01T01:43:29;94045.53;;;17.28;67.60
50093;BME280;35974;47.752;10.290;2022-08-01T01:46:00;94063.03;;;17.29;68.28
50093;BME280;35974;47.752;10.290;2022-08-01T01:48:27;94069.25;;;17.23;68.77
50093;BME280;35974;47.752;10.290;2022-08-01T01:50:55;94040.19;;;17.23;68.57
50093;BME280;35974;47.752;10.290;2022-08-01T01:53:23;94060.13;;;17.47;67.88
50093;BME280;35974;47.752;10.290;2022-08-01T01:55:52;94066.69;;;17.45;68.25
50093;BME280;35974;47.752;10.290;2022-08-01T01:58:21;94049.69;;;17.24;68.65
50093;BME280;35974;47.752;10.290;2022-08-01T02:00:50;94064.06;;;17.28;68.53
50093;BME280;35974;47.752;10.290;2022-08-01T02:03:19;94076.00;;;17.47;68.25
50093;BME280;35974;47.752;10.290;2022-08-01T02:05:47;94071.97;;;17.28;69.11
50093;BME280;35974;47.752;10.290;2022-08-01T02:08:16;94077.75;;;17.25;69.04
50093;BME280;35974;47.752;10.290;2022-08-01T02:10:45;94076.78;;;17.31;68.82
50093;BME280;35974;47.752;10.290;2022-08-01T02:13:33;94070.44;;;17.15;69.22
50093;BME280;35974;47.752;10.290;2022-08-01T02:16:01;94051.28;;;16.91;69.57
50093;BME280;35974;47.752;10.290;2022-08-01T02:18:29;94043.00;;;16.70;70.38
50093;BME280;35974;47.752;10.290;2022-08-01T02:20:57;94046.47;;;16.59;70.78
50093;BME280;35974;47.752;10.290;2022-08-01T02:23:28;94052.47;;;16.54;70.57
50093;BME280;35974;47.752;10.290;2022-08-01T02:26:00;94057.41;;;16.51;70.61
50093;BME280;35974;47.752;10.290;2022-08-01T02:28:40;94033.19;;;16.25;71.12
50093;BME280;35974;47.752;10.290;2022-08-01T02:31:13;94084.78;;;16.44;71.12
50093;BME280;35974;47.752;10.290;2022-08-01T02:33:44;94082.03;;;16.39;71.70
50093;BME280;35974;47.752;10.290;2022-08-01T02:36:12;94076.06;;;16.32;71.92
50093;BME280;35974;47.752;10.290;2022-08-01T02:39:00;94081.63;;;16.59;70.16
50093;BME280;35974;47.752;10.290;2022-08-01T02:41:28;94064.63;;;16.15;71.29
50093;BME280;35974;47.752;10.290;2022-08-01T02:44:02;94086.44;;;16.22;71.98
50093;BME280;35974;47.752;10.290;2022-08-01T02:46:35;94075.31;;;16.08;72.02
50093;BME280;35974;47.752;10.290;2022-08-01T02:49:03;94085.28;;;16.18;72.52
50093;BME280;35974;47.752;10.290;2022-08-01T02:51:32;94051.94;;;16.00;71.69
50093;BME280;35974;47.752;10.290;2022-08-01T02:54:01;94078.66;;;16.03;72.10
50093;BME280;35974;47.752;10.290;2022-08-01T02:56:29;94050.78;;;15.72;73.02
50093;BME280;35974;47.752;10.290;2022-08-01T02:59:05;94052.88;;;15.70;72.52
50093;BME280;35974;47.752;10.290;2022-08-01T03:01:35;94082.59;;;15.89;71.98
50093;BME280;35974;47.752;10.290;2022-08-01T03:04:04;94092.47;;;15.82;72.54
50093;BME280;35974;47.752;10.290;2022-08-01T03:06:32;94069.38;;;15.65;72.55
50093;BME280;35974;47.752;10.290;2022-08-01T03:09:01;94040.38;;;15.42;73.48
50093;BME280;35974;47.752;10.290;2022-08-01T03:11:29;94078.91;;;15.66;73.10
50093;BME280;35974;47.752;10.290;2022-08-01T03:13:59;94057.78;;;15.54;72.82
50093;BME280;35974;47.752;10.290;2022-08-01T03:16:28;94077.53;;;15.52;73.45
50093;BME280;35974;47.752;10.290;2022-08-01T03:18:55;94042.44;;;15.16;72.90
50093;BME280;35974;47.752;10.290;2022-08-01T03:21:23;94062.34;;;15.12;74.14
50093;BME280;35974;47.752;10.290;2022-08-01T03:23:52;94041.94;;;14.95;74.28
50093;BME280;35974;47.752;10.290;2022-08-01T03:26:28;94083.22;;;15.25;74.31
50093;BME280;35974;47.752;10.290;2022-08-01T03:28:57;94072.78;;;15.18;73.92
50093;BME280;35974;47.752;10.290;2022-08-01T03:31:26;94065.31;;;15.04;74.48
50093;BME280;35974;47.752;10.290;2022-08-01T03:33:54;94060.84;;;15.04;73.23
50093;BME280;35974;47.752;10.290;2022-08-01T03:36:26;94090.13;;;15.26;73.35
50093;BME280;35974;47.752;10.290;2022-08-01T03:38:56;94053.38;;;14.89;73.66
50093;BME280;35974;47.752;10.290;2022-08-01T03:41:26;94099.03;;;15.25;72.55
50093;BME280;35974;47.752;10.290;2022-08-01T03:44:18;94093.75;;;15.01;73.60
50093;BME280;35974;47.752;10.290;2022-08-01T03:46:48;94071.59;;;14.60;74.74
50093;BME280;35974;47.752;10.290;2022-08-01T03:49:22;94100.81;;;14.89;75.02
50093;BME280;35974;47.752;10.290;2022-08-01T03:51:49;94108.75;;;14.71;75.43
50093;BME280;35974;47.752;10.290;2022-08-01T03:54:21;94071.84;;;14.40;76.32
50093;BME280;35974;47.752;10.290;2022-08-01T03:56:49;94069.84;;;14.54;75.90
50093;BME280;35974;47.752;10.290;2022-08-01T03:59:18;94102.97;;;14.80;76.10
50093;BME280;35974;47.752;10.290;2022-08-01T04:01:46;94098.69;;;14.68;76.33
50093;BME280;35974;47.752;10.290;2022-08-01T04:04:13;94094.56;;;14.72;76.49
50093;BME280;35974;47.752;10.290;2022-08-01T04:06:40;94080.22;;;14.49;76.33
50093;BME280;35974;47.752;10.290;2022-08-01T04:09:07;94101.09;;;14.69;76.58
50093;BME280;35974;47.752;10.290;2022-08-01T04:11:39;94079.78;;;14.52;75.85
50093;BME280;35974;47.752;10.290;2022-08-01T04:14:07;94103.06;;;14.74;75.40
50093;BME280;35974;47.752;10.290;2022-08-01T04:16:34;94086.41;;;14.43;75.85
50093;BME280;35974;47.752;10.290;2022-08-01T04:19:01;94106.56;;;14.49;76.80
50093;BME280;35974;47.752;10.290;2022-08-01T04:21:29;94101.28;;;14.49;77.00
50093;BME280;35974;47.752;10.290;2022-08-01T04:23:59;94104.81;;;14.61;76.86
50093;BME280;35974;47.752;10.290;2022-08-01T04:26:34;94108.91;;;14.57;77.33
50093;BME280;35974;47.752;10.290;2022-08-01T04:29:04;94081.84;;;14.50;77.05
50093;BME280;35974;47.752;10.290;2022-08-01T04:31:32;94097.94;;;14.60;76.68
50093;BME280;35974;47.752;10.290;2022-08-01T04:34:02;94123.69;;;14.77;76.88
50093;BME280;35974;47.752;10.290;2022-08-01T04:36:30;94103.94;;;14.68;77.34
50093;BME280;35974;47.752;10.290;2022-08-01T04:39:00;94091.22;;;14.64;77.41
50093;BME280;35974;47.752;10.290;2022-08-01T04:41:29;94126.69;;;14.92;76.92
50093;BME280;35974;47.752;10.290;2022-08-01T04:43:57;94103.97;;;14.79;77.38
50093;BME280;35974;47.752;10.290;2022-08-01T04:46:26;94130.94;;;14.93;77.66
50093;BME280;35974;47.752;10.290;2022-08-01T04:48:54;94097.34;;;14.77;77.68
50093;BME280;35974;47.752;10.290;2022-08-01T04:51:21;94112.97;;;14.90;77.18
50093;BME280;35974;47.752;10.290;2022-08-01T04:53:50;94103.31;;;14.84;77.75
50093;BME280;35974;47.752;10.290;2022-08-01T04:56:18;94130.09;;;15.11;77.73
50093;BME280;35974;47.752;10.290;2022-08-01T04:58:45;94133.19;;;15.20;77.63
50093;BME280;35974;47.752;10.290;2022-08-01T05:01:12;94099.25;;;15.12;76.73
50093;BME280;35974;47.752;10.290;2022-08-01T05:03:38;94098.00;;;15.14;77.02
50093;BME280;35974;47.752;10.290;2022-08-01T05:06:05;94127.16;;;15.31;76.67
50093;BME280;35974;47.752;10.290;2022-08-01T05:08:32;94096.75;;;15.17;78.08
50093;BME280;35974;47.752;10.290;2022-08-01T05:10:58;94100.66;;;15.26;77.64
50093;BME280;35974;47.752;10.290;2022-08-01T05:13:27;94105.03;;;15.56;76.73
50093;BME280;35974;47.752;10.290;2022-08-01T05:15:53;94131.94;;;15.77;77.58
50093;BME280;35974;47.752;10.290;2022-08-01T05:18:20;94115.84;;;15.66;77.97
50093;BME280;35974;47.752;10.290;2022-08-01T05:20:53;94128.84;;;15.80;77.53
50093;BME280;35974;47.752;10.290;2022-08-01T05:23:20;94081.41;;;15.61;77.12
50093;BME280;35974;47.752;10.290;2022-08-01T05:26:06;94125.16;;;15.92;76.73
50093;BME280;35974;47.752;10.290;2022-08-01T05:28:34;94109.00;;;15.89;76.56
50093;BME280;35974;47.752;10.290;2022-08-01T05:31:01;94107.47;;;16.05;75.94
50093;BME280;35974;47.752;10.290;2022-08-01T05:33:27;94119.03;;;16.16;75.70
50093;BME280;35974;47.752;10.290;2022-08-01T05:35:54;94092.31;;;16.12;75.50
50093;BME280;35974;47.752;10.290;2022-08-01T05:38:20;94093.31;;;16.23;75.72
50093;BME280;35974;47.752;10.290;2022-08-01T05:40:47;94112.59;;;16.35;75.69
50093;BME280;35974;47.752;10.290;2022-08-01T05:43:13;94089.84;;;16.34;75.98
50093;BME280;35974;47.752;10.290;2022-08-01T05:45:40;94100.63;;;16.44;75.85
50093;BME280;35974;47.752;10.290;2022-08-01T05:48:07;94129.69;;;16.73;75.88
50093;BME280;35974;47.752;10.290;2022-08-01T05:50:34;94118.41;;;16.90;75.57
50093;BME280;35974;47.752;10.290;2022-08-01T05:53:00;94094.41;;;17.08;74.77
50093;BME280;35974;47.752;10.290;2022-08-01T05:55:27;94122.22;;;17.28;74.23
50093;BME280;35974;47.752;10.290;2022-08-01T05:57:53;94098.28;;;17.17;74.17
50093;BME280;35974;47.752;10.290;2022-08-01T06:00:20;94111.25;;;17.36;74.11
50093;BME280;35974;47.752;10.290;2022-08-01T06:02:47;94121.50;;;17.49;74.30
50093;BME280;35974;47.752;10.290;2022-08-01T06:05:13;94095.69;;;17.39;74.30
50093;BME280;35974;47.752;10.290;2022-08-01T06:07:40;94124.88;;;17.62;74.18
50093;BME280;35974;47.752;10.290;2022-08-01T06:10:07;94109.63;;;17.69;73.53
50093;BME280;35974;47.752;10.290;2022-08-01T06:12:34;94112.28;;;17.69;73.78
50093;BME280;35974;47.752;10.290;2022-08-01T06:15:02;94120.09;;;17.92;73.00
50093;BME280;35974;47.752;10.290;2022-08-01T06:17:32;94128.22;;;18.08;72.66
50093;BME280;35974;47.752;10.290;2022-08-01T06:19:59;94113.81;;;17.99;72.50
50093;BME280;35974;47.752;10.290;2022-08-01T06:22:26;94109.13;;;18.06;72.65
50093;BME280;35974;47.752;10.290;2022-08-01T06:24:53;94095.59;;;18.02;72.37
50093;BME280;35974;47.752;10.290;2022-08-01T06:27:19;94117.91;;;18.28;72.91
50093;BME280;35974;47.752;10.290;2022-08-01T06:29:47;94116.66;;;18.58;72.36
50093;BME280;35974;47.752;10.290;2022-08-01T06:32:20;94106.41;;;18.62;72.14
50093;BME280;35974;47.752;10.290;2022-08-01T06:34:53;94112.69;;;18.83;70.78
50093;BME280;35974;47.752;10.290;2022-08-01T06:37:21;94116.53;;;18.92;70.23
50093;BME280;35974;47.752;10.290;2022-08-01T06:39:48;94132.66;;;19.13;69.77
50093;BME280;35974;47.752;10.290;2022-08-01T06:42:15;94108.25;;;19.11;67.90
50093;BME280;35974;47.752;10.290;2022-08-01T06:44:42;94105.22;;;19.29;67.96
50093;BME280;35974;47.752;10.290;2022-08-01T06:47:09;94110.06;;;19.37;67.59
50093;BME280;35974;47.752;10.290;2022-08-01T06:49:35;94081.34;;;19.29;67.43
50093;BME280;35974;47.752;10.290;2022-08-01T06:52:02;94097.91;;;19.42;67.46
50093;BME280;35974;47.752;10.290;2022-08-01T06:54:30;94131.13;;;19.77;67.39
50093;BME280;35974;47.752;10.290;2022-08-01T06:56:56;94109.09;;;19.76;66.85
50093;BME280;35974;47.752;10.290;2022-08-01T06:59:23;94096.63;;;19.82;66.03
50093;BME280;35974;47.752;10.290;2022-08-01T07:01:49;94113.34;;;20.20;64.35
50093;BME280;35974;47.752;10.290;2022-08-01T07:04:16;94108.03;;;20.20;64.16
50093;BME280;35974;47.752;10.290;2022-08-01T07:06:43;94055.25;;;19.86;64.18
50093;BME280;35974;47.752;10.290;2022-08-01T07:09:09;94096.34;;;20.26;62.17
50093;BME280;35974;47.752;10.290;2022-08-01T07:11:40;94074.03;;;20.22;62.75
50093;BME280;35974;47.752;10.290;2022-08-01T07:14:13;94092.28;;;20.71;61.41
50093;BME280;35974;47.752;10.290;2022-08-01T07:16:40;94114.09;;;20.68;62.21
50093;BME280;35974;47.752;10.290;2022-08-01T07:19:07;94089.63;;;20.66;61.13
50093;BME280;35974;47.752;10.290;2022-08-01T07:21:34;94126.41;;;20.90;61.37
50093;BME280;35974;47.752;10.290;2022-08-01T07:24:10;94120.31;;;20.99;61.77
50093;BME280;35974;47.752;10.290;2022-08-01T07:26:44;94103.06;;;21.12;60.34
50093;BME280;35974;47.752;10.290;2022-08-01T07:29:22;94123.81;;;21.15;59.90
50093;BME280;35974;47.752;10.290;2022-08-01T07:32:00;94080.09;;;20.85;59.04
50093;BME280;35974;47.752;10.290;2022-08-01T07:34:38;94096.13;;;21.21;57.84
50093;BME280;35974;47.752;10.290;2022-08-01T07:37:04;94089.75;;;21.17;57.28
50093;BME280;35974;47.752;10.290;2022-08-01T07:39:32;94097.72;;;21.23;58.51
50093;BME280;35974;47.752;10.290;2022-08-01T07:41:59;94123.34;;;21.60;57.73
50093;BME280;35974;47.752;10.290;2022-08-01T07:44:39;94105.22;;;21.82;56.87
50093;BME280;35974;47.752;10.290;2022-08-01T07:47:06;94081.28;;;21.56;55.93
50093;BME280;35974;47.752;10.290;2022-08-01T07:49:33;94057.31;;;21.51;55.61
50093;BME280;35974;47.752;10.290;2022-08-01T08:06:55;94083.06;;;22.02;51.26
50093;BME280;35974;47.752;10.290;2022-08-01T08:09:22;94064.16;;;21.88;49.19
50093;BME280;35974;47.752;10.290;2022-08-01T08:11:49;94053.53;;;21.93;49.12
50093;BME280;35974;47.752;10.290;2022-08-01T08:14:16;94088.09;;;22.19;50.00
50093;BME280;35974;47.752;10.290;2022-08-01T08:16:43;94096.84;;;22.45;49.49
50093;BME280;35974;47.752;10.290;2022-08-01T08:19:11;94058.78;;;22.14;49.11
50093;BME280;35974;47.752;10.290;2022-08-01T08:21:38;94097.13;;;22.39;47.74
50093;BME280;35974;47.752;10.290;2022-08-01T08:24:05;94077.41;;;22.35;48.75
50093;BME280;35974;47.752;10.290;2022-08-01T08:26:54;94075.31;;;22.21;48.27
50093;BME280;35974;47.752;10.290;2022-08-01T08:29:29;94065.72;;;22.15;50.24
50093;BME280;35974;47.752;10.290;2022-08-01T08:32:03;94081.63;;;22.46;51.20
50093;BME280;35974;47.752;10.290;2022-08-01T08:34:30;94082.59;;;22.71;51.17
50093;BME280;35974;47.752;10.290;2022-08-01T08:36:57;94092.75;;;22.69;47.68
50093;BME280;35974;47.752;10.290;2022-08-01T08:39:26;94072.53;;;22.57;47.25
50093;BME280;35974;47.752;10.290;2022-08-01T08:41:52;94059.13;;;22.67;48.52
50093;BME280;35974;47.752;10.290;2022-08-01T08:44:19;94080.88;;;22.90;48.59
50093;BME280;35974;47.752;10.290;2022-08-01T08:46:51;94070.47;;;22.94;47.40
50093;BME280;35974;47.752;10.290;2022-08-01T08:49:23;94079.28;;;22.89;46.93
50093;BME280;35974;47.752;10.290;2022-08-01T08:51:51;94054.06;;;22.66;46.29
50093;BME280;35974;47.752;10.290;2022-08-01T08:54:19;94063.84;;;22.86;47.34
50093;BME280;35974;47.752;10.290;2022-08-01T08:57:03;94064.28;;;22.98;47.60
50093;BME280;35974;47.752;10.290;2022-08-01T08:59:31;94060.59;;;22.94;46.42
50093;BME280;35974;47.752;10.290;2022-08-01T09:01:58;94094.81;;;22.82;46.66
50093;BME280;35974;47.752;10.290;2022-08-01T09:04:25;94081.84;;;23.15;47.64
50093;BME280;35974;47.752;10.290;2022-08-01T09:06:53;94049.63;;;23.01;45.91
50093;BME280;35974;47.752;10.290;2022-08-01T09:09:20;94076.91;;;23.32;48.58
50093;BME280;35974;47.752;10.290;2022-08-01T09:11:47;94060.34;;;23.35;48.25
50093;BME280;35974;47.752;10.290;2022-08-01T09:14:23;94081.78;;;23.25;48.29
50093;BME280;35974;47.752;10.290;2022-08-01T09:17:09;94060.75;;;23.53;48.05
50093;BME280;35974;47.752;10.290;2022-08-01T09:19:42;94078.28;;;23.64;47.34
50093;BME280;35974;47.752;10.290;2022-08-01T09:22:12;94063.38;;;23.58;46.42
50093;BME280;35974;47.752;10.290;2022-08-01T09:24:40;94080.34;;;23.38;47.21
50093;BME280;35974;47.752;10.290;2022-08-01T09:27:26;94061.28;;;23.15;47.29
50093;BME280;35974;47.752;10.290;2022-08-01T09:29:53;94083.56;;;23.69;47.51
50093;BME280;35974;47.752;10.290;2022-08-01T09:32:29;94061.50;;;23.88;46.72
50093;BME280;35974;47.752;10.290;2022-08-01T09:35:29;94081.91;;;23.73;46.20
50093;BME280;35974;47.752;10.290;2022-08-01T09:38:19;94075.97;;;23.87;45.78
50093;BME280;35974;47.752;10.290;2022-08-01T09:43:21;94082.78;;;24.22;46.07
50093;BME280;35974;47.752;10.290;2022-08-01T09:45:48;94068.69;;;24.17;46.69
50093;BME280;35974;47.752;10.290;2022-08-01T09:48:30;94045.38;;;23.98;47.03
50093;BME280;35974;47.752;10.290;2022-08-01T09:50:59;94086.09;;;24.38;46.27
50093;BME280;35974;47.752;10.290;2022-08-01T09:54:02;94082.41;;;24.34;47.02
50093;BME280;35974;47.752;10.290;2022-08-01T09:56:42;94042.38;;;23.75;46.37
50093;BME280;35974;47.752;10.290;2022-08-01T09:59:09;94055.03;;;23.94;44.86
50093;BME280;35974;47.752;10.290;2022-08-01T10:01:49;94075.88;;;24.45;46.43
50093;BME280;35974;47.752;10.290;2022-08-01T10:04:18;94082.72;;;24.57;44.95
50093;BME280;35974;47.752;10.290;2022-08-01T10:06:47;94079.19;;;24.37;43.40
50093;BME280;35974;47.752;10.290;2022-08-01T10:09:29;94072.34;;;24.26;45.01
50093;BME280;35974;47.752;10.290;2022-08-01T10:12:07;94067.88;;;24.40;45.16
50093;BME280;35974;47.752;10.290;2022-08-01T10:14:42;94080.94;;;24.90;44.25
50093;BME280;35974;47.752;10.290;2022-08-01T10:17:15;94051.25;;;25.30;43.67
50093;BME280;35974;47.752;10.290;2022-08-01T10:19:46;94050.31;;;25.53;42.38
50093;BME280;35974;47.752;10.290;2022-08-01T10:22:13;94051.16;;;25.68;46.35
50093;BME280;35974;47.752;10.290;2022-08-01T10:24:45;94058.19;;;25.97;44.28
50093;BME280;35974;47.752;10.290;2022-08-01T10:27:15;94051.53;;;25.75;43.04
50093;BME280;35974;47.752;10.290;2022-08-01T10:29:55;94045.50;;;26.16;42.91
50093;BME280;35974;47.752;10.290;2022-08-01T10:32:35;94021.38;;;26.16;42.67
50093;BME280;35974;47.752;10.290;2022-08-01T10:35:05;94052.44;;;26.45;44.61
50093;BME280;35974;47.752;10.290;2022-08-01T10:37:40;94046.88;;;26.55;42.73
50093;BME280;35974;47.752;10.290;2022-08-01T10:40:18;94034.75;;;26.72;42.41
50093;BME280;35974;47.752;10.290;2022-08-01T10:43:03;94041.09;;;26.76;41.57
50093;BME280;35974;47.752;10.290;2022-08-01T10:45:30;94021.84;;;26.18;40.51
50093;BME280;35974;47.752;10.290;2022-08-01T10:48:22;94033.94;;;26.43;40.88
50093;BME280;35974;47.752;10.290;2022-08-01T10:50:52;94041.50;;;26.69;41.96
50093;BME280;35974;47.752;10.290;2022-08-01T10:53:25;94023.44;;;26.19;42.99
50093;BME280;35974;47.752;10.290;2022-08-01T10:56:01;94038.94;;;26.50;40.99
50093;BME280;35974;47.752;10.290;2022-08-01T10:58:36;94039.34;;;26.71;42.53
50093;BME280;35974;47.752;10.290;2022-08-01T11:01:26;94029.13;;;26.96;41.19
50093;BME280;35974;47.752;10.290;2022-08-01T11:04:26;94029.97;;;26.69;39.63
50093;BME280;35974;47.752;10.290;2022-08-01T11:07:21;94031.38;;;26.52;40.51
50093;BME280;35974;47.752;10.290;2022-08-01T11:10:13;94020.06;;;26.13;38.66
50093;BME280;35974;47.752;10.290;2022-08-01T11:12:42;94012.47;;;25.74;38.76
50093;BME280;35974;47.752;10.290;2022-08-01T11:17:40;94027.72;;;25.60;39.50
50093;BME280;35974;47.752;10.290;2022-08-01T11:20:21;94024.75;;;25.75;40.61
50093;BME280;35974;47.752;10.290;2022-08-01T11:28:25;93997.78;;;25.85;40.29
50093;BME280;35974;47.752;10.290;2022-08-01T11:41:27;94006.50;;;26.60;40.16
50093;BME280;35974;47.752;10.290;2022-08-01T11:44:29;94009.81;;;26.29;40.06
50093;BME280;35974;47.752;10.290;2022-08-01T11:47:05;94009.94;;;26.24;40.72
50093;BME280;35974;47.752;10.290;2022-08-01T11:49:47;94016.47;;;26.46;42.05
50093;BME280;35974;47.752;10.290;2022-08-01T11:52:24;93997.38;;;26.47;37.25
50093;BME280;35974;47.752;10.290;2022-08-01T11:54:54;94009.81;;;26.29;37.56
50093;BME280;35974;47.752;10.290;2022-08-01T11:57:30;93989.47;;;26.28;39.15
50093;BME280;35974;47.752;10.290;2022-08-01T12:00:05;94002.09;;;26.42;39.03
50093;BME280;35974;47.752;10.290;2022-08-01T12:02:40;93987.78;;;26.33;38.70
50093;BME280;35974;47.752;10.290;2022-08-01T12:05:15;93966.25;;;26.10;38.70
50093;BME280;35974;47.752;10.290;2022-08-01T12:07:44;94002.34;;;26.54;39.84
50093;BME280;35974;47.752;10.290;2022-08-01T12:10:15;93998.16;;;26.76;38.01
50093;BME280;35974;47.752;10.290;2022-08-01T12:12:44;93985.22;;;26.78;38.90
50093;BME280;35974;47.752;10.290;2022-08-01T12:15:12;93993.81;;;26.52;38.20
50093;BME280;35974;47.752;10.290;2022-08-01T12:17:50;93999.00;;;26.35;36.25
50093;BME280;35974;47.752;10.290;2022-08-01T12:20:26;93983.00;;;26.29;38.42
50093;BME280;35974;47.752;10.290;2022-08-01T12:23:04;93968.19;;;26.46;36.58
50093;BME280;35974;47.752;10.290;2022-08-01T12:25:34;93994.63;;;26.39;37.10
50093;BME280;35974;47.752;10.290;2022-08-01T12:28:06;93970.75;;;26.51;38.52
50093;BME280;35974;47.752;10.290;2022-08-01T12:30:35;93971.34;;;26.48;38.91
50093;BME280;35974;47.752;10.290;2022-08-01T12:33:04;93977.91;;;26.70;36.51
50093;BME280;35974;47.752;10.290;2022-08-01T12:35:32;93955.75;;;26.50;36.25
50093;BME280;35974;47.752;10.290;2022-08-01T12:38:04;93961.84;;;26.42;37.17
50093;BME280;35974;47.752;10.290;2022-08-01T12:40:35;93986.97;;;26.46;36.97
50093;BME280;35974;47.752;10.290;2022-08-01T12:43:07;93981.09;;;26.44;38.99
50093;BME280;35974;47.752;10.290;2022-08-01T12:45:45;93952.13;;;26.18;38.65
50093;BME280;35974;47.752;10.290;2022-08-01T12:48:23;93947.56;;;26.05;38.74
50093;BME280;35974;47.752;10.290;2022-08-01T12:50:51;93971.97;;;26.31;37.79
50093;BME280;35974;47.752;10.290;2022-08-01T12:53:18;93956.06;;;26.35;38.94
50093;BME280;35974;47.752;10.290;2022-08-01T12:55:54;93965.13;;;26.89;39.87
50093;BME280;35974;47.752;10.290;2022-08-01T12:58:30;93924.53;;;26.91;37.49
50093;BME280;35974;47.752;10.290;2022-08-01T13:01:06;93935.19;;;27.04;37.30
50093;BME280;35974;47.752;10.290;2022-08-01T13:03:33;93923.44;;;27.46;37.14
50093;BME280;35974;47.752;10.290;2022-08-01T13:06:00;93911.50;;;27.07;37.22
50093;BME280;35974;47.752;10.290;2022-08-01T13:08:32;93942.16;;;27.28;35.53
50093;BME280;35974;47.752;10.290;2022-08-01T13:11:06;93924.09;;;27.43;37.70
50093;BME280;35974;47.752;10.290;2022-08-01T13:13:41;93938.09;;;27.62;35.73
50093;BME280;35974;47.752;10.290;2022-08-01T13:16:09;93918.53;;;27.70;35.04
50093;BME280;35974;47.752;10.290;2022-08-01T13:18:48;93915.84;;;27.79;34.24
50093;BME280;35974;47.752;10.290;2022-08-01T13:21:21;93907.78;;;27.70;34.15
50093;BME280;35974;47.752;10.290;2022-08-01T13:26:45;93906.88;;;27.84;34.04
50093;BME280;35974;47.752;10.290;2022-08-01T13:29:17;93897.63;;;27.67;32.73
50093;BME280;35974;47.752;10.290;2022-08-01T13:31:44;93934.66;;;27.70;34.29
50093;BME280;35974;47.752;10.290;2022-08-01T13:34:11;93907.53;;;27.49;32.44
50093;BME280;35974;47.752;10.290;2022-08-01T13:36:38;93901.69;;;27.56;35.51
50093;BME280;35974;47.752;10.290;2022-08-01T13:39:12;93914.84;;;27.66;35.44
50093;BME280;35974;47.752;10.290;2022-08-01T13:41:57;93900.81;;;27.69;32.66
50093;BME280;35974;47.752;10.290;2022-08-01T13:44:23;93900.53;;;27.39;33.32
50093;BME280;35974;47.752;10.290;2022-08-01T13:46:50;93907.84;;;27.25;32.80
50093;BME280;35974;47.752;10.290;2022-08-01T13:49:17;93923.97;;;27.25;32.32
50093;BME280;35974;47.752;10.290;2022-08-01T13:51:44;93923.59;;;27.18;32.16
50093;BME280;35974;47.752;10.290;2022-08-01T13:54:12;93924.13;;;27.29;35.14
50093;BME280;35974;47.752;10.290;2022-08-01T13:56:38;93903.97;;;27.09;35.45
50093;BME280;35974;47.752;10.290;2022-08-01T13:59:05;93907.41;;;27.63;33.42
50093;BME280;35974;47.752;10.290;2022-08-01T14:01:34;93922.38;;;27.87;34.65